Time;durP1;ratioP1;P1;durP2;ratioP2;P2;SDS_P1;SDS_P2;PMS_P1;PMS_P2;Temp;Humidity;BMP_temperature;BMP_pressure;BME280_temperature;BME280_humidity;BME280_pressure;Samples;Min_cycle;Max_cycle;Signal;HPM_P1;HPM_P2
2022/06/28 01:54:22;;;;;;;26.40;12.63;;;12.50;99.90;;;;;;4774948;29;20053;-93
2022/06/28 01:57:21;;;;;;;20.63;13.27;;;12.50;99.90;;;;;;4815944;29;20590;-93
2022/06/28 02:01:05;;;;;;;;;;;;;;;;;;;;;
2022/06/28 02:07:37;;;;;;;22.20;14.05;;;12.50;99.90;;;;;;4823497;29;20096;-92
2022/06/28 02:10:47;;;;;;;;;;;;;;;;;;;;;
2022/06/28 02:25:02;;;;;;;22.88;14.27;;;12.40;99.90;;;;;;4854132;29;20358;-93
2022/06/28 02:50:54;;;;;;;19.52;13.60;;;12.20;99.90;;;;;;4729703;30;20064;-93
2022/06/28 02:53:45;;;;;;;23.35;13.30;;;12.00;99.90;;;;;;4663979;30;20068;-93
2022/06/28 02:56:37;;;;;;;26.55;14.82;;;12.10;99.90;;;;;;4703202;30;20100;-93
2022/06/28 02:59:37;;;;;;;23.05;13.70;;;12.10;99.90;;;;;;4668550;30;20116;-93
2022/06/28 03:02:43;;;;;;;;;;;;;;;;;;;;;
2022/06/28 03:10:12;;;;;;;21.55;13.02;;;12.10;99.90;;;;;;4770540;29;20053;-92
2022/06/28 03:13:26;;;;;;;;;;;;;;;;;;;;;
2022/06/28 03:53:53;;;;;;;25.92;14.05;;;11.80;99.90;;;;;;4741582;30;20564;-92
2022/06/28 03:57:07;;;;;;;;;;;;;;;;;;;;;
2022/06/28 04:00:30;;;;;;;;;;;;;;;;;;;;;
2022/06/28 04:06:22;;;;;;;;;;;;;;;;;;;;;
2022/06/28 04:09:18;;;;;;;21.70;12.07;;;12.70;99.90;;;;;;4749019;30;20229;-92
2022/06/28 04:15:34;;;;;;;16.13;10.40;;;12.80;99.90;;;;;;4733883;30;20063;-91
2022/06/28 04:19:00;;;;;;;;;;;;;;;;;;;;;
2022/06/28 04:22:45;;;;;;;;;;;;;;;;;;;;;
2022/06/28 04:25:19;;;;;;;23.92;11.30;;;12.60;99.90;;;;;;4780187;29;20119;-92
2022/06/28 04:32:16;;;;;;;19.52;12.85;;;12.60;99.90;;;;;;4772573;29;20065;-92
2022/06/28 04:35:50;;;;;;;20.73;13.70;;;12.70;99.90;;;;;;4806613;29;20057;-91
2022/06/28 04:38:21;;;;;;;;;;;;;;;;;;;;;
2022/06/28 04:44:57;;;;;;;22.13;13.32;;;12.70;99.90;;;;;;4773225;29;20095;-92
2022/06/28 04:47:54;;;;;;;20.35;10.82;;;12.80;99.90;;;;;;4790563;29;20404;-92
2022/06/28 04:50:54;;;;;;;;;;;;;;;;;;;;;
2022/06/28 04:53:49;;;;;;;26.48;10.15;;;12.90;99.90;;;;;;4793125;29;20163;-91
2022/06/28 04:56:30;;;;;;;13.07;8.45;;;13.10;99.90;;;;;;4808546;29;20191;-92
2022/06/28 05:14:02;;;;;;;;;;;;;;;;;;;;;
2022/06/28 05:17:35;;;;;;;14.38;8.40;;;13.70;99.90;;;;;;4836339;29;20057;-90
2022/06/28 05:28:44;;;;;;;16.60;7.68;;;14.20;99.90;;;;;;4909458;23;20046;-94
2022/06/28 05:32:38;;;;;;;14.95;7.63;;;14.30;99.90;;;;;;4794408;29;20049;-91
2022/06/28 05:35:34;;;;;;;12.70;7.28;;;14.50;99.90;;;;;;4744794;29;20556;-96
2022/06/28 05:50:13;;;;;;;16.08;5.15;;;15.10;99.90;;;;;;4877557;23;20410;-93
2022/06/28 05:52:38;;;;;;;;;;;15.20;99.90;;;;;;4827929;29;20201;-94
2022/06/28 05:55:07;;;;;;;10.88;5.10;;;15.30;99.90;;;;;;4829365;29;20440;-92
2022/06/28 05:57:44;;;;;;;13.25;5.70;;;15.30;99.90;;;;;;4831603;29;20217;-92
2022/06/28 06:00:13;;;;;;;14.00;6.05;;;15.70;99.90;;;;;;4826186;29;20463;-92
2022/06/28 06:02:52;;;;;;;;;;;;;;;;;;;;;
2022/06/28 06:05:51;;;;;;;13.80;5.40;;;15.70;99.90;;;;;;4841991;29;20085;-91
2022/06/28 06:08:32;;;;;;;11.60;5.57;;;15.80;99.90;;;;;;4810954;29;20454;-91
2022/06/28 06:14:08;;;;;;;10.48;4.60;;;16.00;99.90;;;;;;4841967;29;20057;-91
2022/06/28 06:16:34;;;;;;;8.98;4.05;;;16.10;99.90;;;;;;4810246;29;20081;-91
2022/06/28 06:19:03;;;;;;;11.52;4.63;;;16.20;99.90;;;;;;4811946;29;20525;-91
2022/06/28 06:24:48;;;;;;;;;;;;;;;;;;;;;
2022/06/28 06:27:34;;;;;;;13.55;4.60;;;16.40;99.90;;;;;;4843462;29;20486;-91
2022/06/28 06:33:19;;;;;;;;;;;;;;;;;;;;;
2022/06/28 06:37:05;;;;;;;12.20;4.55;;;16.60;99.90;;;;;;4843015;29;20065;-91
2022/06/28 06:39:28;;;;;;;12.93;4.33;;;16.70;99.90;;;;;;4839075;29;20069;-91
2022/06/28 06:41:57;;;;;;;10.13;4.50;;;16.70;99.90;;;;;;4834672;24;20056;-92
2022/06/28 06:44:28;;;;;;;11.07;4.55;;;16.80;99.90;;;;;;4844229;29;20162;-92
2022/06/28 06:46:57;;;;;;;11.10;4.18;;;16.90;99.90;;;;;;4828234;29;20045;-91
2022/06/28 06:49:31;;;;;;;14.52;4.53;;;17.00;99.90;;;;;;4828087;29;20145;-92
2022/06/28 06:51:57;;;;;;;12.88;4.20;;;17.10;99.90;;;;;;4828460;29;20045;-92
2022/06/28 07:00:34;;;;;;;;;;;;;;;;;;;;;
2022/06/28 07:03:57;;;;;;;;;;;;;;;;;;;;;
2022/06/28 07:06:26;;;;;;;15.73;3.88;;;17.70;99.90;;;;;;4806795;29;20065;-92
2022/06/28 07:09:24;;;;;;;14.38;3.55;;;17.70;99.90;;;;;;4828110;29;20478;-92
2022/06/28 07:12:41;;;;;;;;;;;;;;;;;;;;;
2022/06/28 07:16:06;;;;;;;;;;;;;;;;;;;;;
2022/06/28 07:19:56;;;;;;;11.07;3.40;;;18.20;99.90;;;;;;4793159;29;20058;-92
2022/06/28 07:22:54;;;;;;;13.68;2.88;;;18.30;99.90;;;;;;4769505;29;20101;-92
2022/06/28 07:25:33;;;;;;;;;;;;;;;;;;;;;
2022/06/28 07:28:23;;;;;;;13.23;3.15;;;18.30;99.90;;;;;;4824766;29;20067;-94
2022/06/28 07:33:50;;;;;;;13.40;3.42;;;18.60;99.90;;;;;;4796142;29;20058;-92
2022/06/28 07:37:20;;;;;;;;;;;;;;;;;;;;;
2022/06/28 07:40:41;;;;;;;11.07;2.70;;;18.70;99.90;;;;;;4784203;30;20107;-94
2022/06/28 07:53:56;;;;;;;16.02;2.08;;;18.60;99.90;;;;;;4784534;30;20060;-94
2022/06/28 07:56:56;;;;;;;8.88;1.90;;;18.80;99.90;;;;;;4754989;30;20055;-94
2022/06/28 08:00:22;;;;;;;;;;;;;;;;;;;;;
2022/06/28 08:03:29;;;;;;;;;;;;;;;;;;;;;
2022/06/28 08:06:38;;;;;;;10.02;2.10;;;18.60;99.90;;;;;;4779461;29;20124;-94
2022/06/28 08:12:42;;;;;;;10.30;1.50;;;18.90;99.90;;;;;;4780690;29;20062;-93
2022/06/28 08:31:24;;;;;;;;;;;;;;;;;;;;;
2022/06/28 08:40:44;;;;;;;10.88;1.30;;;19.60;99.90;;;;;;586694;23;20454;-96
2022/06/28 08:43:10;;;;;;;8.75;1.50;;;19.70;99.90;;;;;;4809785;29;20088;-94
2022/06/28 08:45:36;;;;;;;9.20;1.30;;;19.80;99.90;;;;;;4797050;29;20043;-94
2022/06/28 08:48:13;;;;;;;7.38;1.23;;;19.80;99.90;;;;;;4795903;29;20054;-94
2022/06/28 08:53:09;;;;;;;7.90;1.20;;;19.70;99.90;;;;;;4865817;29;20049;-94
2022/06/28 08:55:36;;;;;;;7.30;1.30;;;19.90;99.90;;;;;;4833506;29;20057;-94
2022/06/28 08:58:06;;;;;;;10.18;1.60;;;20.10;99.90;;;;;;4834100;29;20056;-95
2022/06/28 09:00:32;;;;;;;18.35;1.60;;;20.20;99.90;;;;;;4831969;29;20048;-96
2022/06/28 09:02:58;;;;;;;5.70;1.50;;;20.40;99.90;;;;;;4832529;29;20080;-95
2022/06/28 09:05:27;;;;;;;6.22;1.08;;;20.50;99.90;;;;;;4831812;29;20494;-94
2022/06/28 09:07:55;;;;;;;13.50;1.50;;;20.30;99.90;;;;;;4832051;29;20149;-96
2022/06/28 09:10:21;;;;;;;10.00;0.95;;;20.10;99.90;;;;;;4831731;29;20049;-94
2022/06/28 09:12:54;;;;;;;8.52;1.27;;;19.80;99.90;;;;;;4832308;29;20140;-95
2022/06/28 09:15:22;;;;;;;6.75;1.10;;;19.60;99.90;;;;;;4830906;29;20129;-95
2022/06/28 09:17:52;;;;;;;8.90;1.40;;;19.60;99.90;;;;;;4831993;29;20041;-96
2022/06/28 09:20:18;;;;;;;11.85;1.17;;;19.80;99.90;;;;;;4833540;29;20038;-95
2022/06/28 09:22:45;;;;;;;5.43;1.00;;;20.10;99.90;;;;;;4830930;29;20064;-95
2022/06/28 09:25:27;;;;;;;10.60;1.55;;;20.30;99.90;;;;;;4831559;29;20133;-96
2022/06/28 09:27:57;;;;;;;7.63;1.25;;;20.60;99.90;;;;;;4832550;29;20085;-96
2022/06/28 09:30:26;;;;;;;7.72;1.42;;;20.80;99.90;;;;;;4832811;29;20045;-95
2022/06/28 09:32:52;;;;;;;11.18;1.45;;;21.00;99.90;;;;;;4831465;29;20194;-96
2022/06/28 09:35:18;;;;;;;7.43;1.48;;;21.10;99.90;;;;;;4831114;29;20483;-95
2022/06/28 09:40:13;;;;;;;7.88;1.30;;;21.10;99.90;;;;;;4846497;29;20049;-95
2022/06/28 09:42:40;;;;;;;7.93;1.33;;;21.00;99.90;;;;;;4832523;29;20059;-95
2022/06/28 09:45:07;;;;;;;10.18;1.42;;;21.00;99.90;;;;;;4831437;29;20041;-94
2022/06/28 09:47:32;;;;;;;8.02;1.52;;;20.90;99.90;;;;;;4832525;29;20391;-95
2022/06/28 09:49:59;;;;;;;7.35;1.40;;;20.80;99.90;;;;;;4831616;29;20102;-95
2022/06/28 09:52:29;;;;;;;12.18;1.38;;;20.70;99.90;;;;;;4830742;29;20082;-95
2022/06/28 09:54:57;;;;;;;11.07;1.75;;;20.50;99.90;;;;;;4830826;29;20625;-96
2022/06/28 09:57:24;;;;;;;6.93;1.33;;;20.30;99.90;;;;;;4830728;29;20498;-95
2022/06/28 09:59:50;;;;;;;6.80;1.77;;;20.10;99.90;;;;;;4831159;29;20057;-96
2022/06/28 10:02:18;;;;;;;5.68;1.10;;;20.00;99.90;;;;;;4831305;29;20057;-95
2022/06/28 10:04:45;;;;;;;8.25;1.38;;;19.80;99.90;;;;;;4831480;29;20053;-95
2022/06/28 10:07:12;;;;;;;12.57;1.50;;;19.70;99.90;;;;;;4832790;29;20040;-96
2022/06/28 10:09:38;;;;;;;8.25;1.50;;;19.60;99.90;;;;;;4833000;29;20057;-94
2022/06/28 10:15:01;;;;;;;14.93;1.65;;;19.50;99.90;;;;;;4844925;29;20141;-94
2022/06/28 10:17:43;;;;;;;6.75;1.45;;;19.50;99.90;;;;;;4830368;29;20061;-95
2022/06/28 10:20:12;;;;;;;15.98;2.25;;;19.40;99.90;;;;;;4832841;29;20470;-95
2022/06/28 10:22:38;;;;;;;7.32;1.20;;;19.40;99.90;;;;;;4830878;29;20115;-95
2022/06/28 10:25:14;;;;;;;9.35;1.70;;;19.40;99.90;;;;;;4831235;29;20399;-96
2022/06/28 10:28:41;;;;;;;9.77;1.80;;;19.50;99.90;;;;;;4837505;29;20063;-96
2022/06/28 10:31:39;;;;;;;9.65;1.27;;;19.50;99.90;;;;;;4771475;30;20094;-96
2022/06/28 10:34:47;;;;;;;9.98;1.45;;;19.60;99.90;;;;;;4783307;29;20101;-96
2022/06/28 10:37:38;;;;;;;10.90;1.45;;;19.70;99.90;;;;;;4792312;30;20059;-96
2022/06/28 10:40:49;;;;;;;8.55;1.50;;;19.90;99.90;;;;;;4780454;30;20067;-96
2022/06/28 10:44:05;;;;;;;4.05;1.27;;;20.00;99.90;;;;;;4802484;30;20039;-96
2022/06/28 10:47:00;;;;;;;8.95;1.90;;;19.90;99.90;;;;;;4725140;30;20051;-96
2022/06/28 10:50:06;;;;;;;10.77;1.48;;;20.10;99.90;;;;;;4725548;30;20068;-96
2022/06/28 10:56:16;;;;;;;12.05;1.95;;;20.90;99.90;;;;;;4873745;23;20144;-95
2022/06/28 10:59:06;;;;;;;11.23;1.65;;;21.30;99.90;;;;;;4830256;29;20101;-96
2022/06/28 11:01:40;;;;;;;11.75;1.75;;;21.50;99.90;;;;;;4830068;29;20049;-96
2022/06/28 11:04:10;;;;;;;14.98;1.58;;;21.90;99.90;;;;;;4832606;29;20253;-95
2022/06/28 11:06:41;;;;;;;7.13;1.33;;;22.00;99.90;;;;;;4830051;29;20663;-96
2022/06/28 11:09:23;;;;;;;9.77;1.20;;;22.20;99.90;;;;;;4831973;29;20052;-95
2022/06/28 11:12:06;;;;;;;8.30;1.50;;;22.40;99.90;;;;;;4829810;29;20130;-95
2022/06/28 11:14:43;;;;;;;10.02;1.60;;;22.60;99.90;;;;;;4830220;29;20175;-95
2022/06/28 11:17:17;;;;;;;5.45;1.30;;;22.90;99.90;;;;;;4829631;29;20387;-96
2022/06/28 11:22:49;;;;;;;8.15;1.42;;;22.80;99.90;;;;;;4821992;29;20089;-96
2022/06/28 11:25:18;;;;;;;8.82;1.20;;;22.80;99.90;;;;;;4831127;29;20045;-96
2022/06/28 11:27:48;;;;;;;7.38;1.20;;;23.00;99.90;;;;;;4831257;29;20136;-96
2022/06/28 11:30:15;;;;;;;7.97;1.48;;;22.90;99.90;;;;;;4826907;29;20448;-96
2022/06/28 11:32:43;;;;;;;7.78;1.10;;;22.70;99.90;;;;;;4812160;29;20050;-96
2022/06/28 11:35:13;;;;;;;9.20;1.73;;;22.50;99.90;;;;;;4811587;29;20050;-96
2022/06/28 11:37:57;;;;;;;7.70;1.48;;;22.30;99.90;;;;;;4821037;29;20034;-95
2022/06/28 11:40:27;;;;;;;8.60;1.38;;;22.00;99.90;;;;;;4811408;29;20114;-96
2022/06/28 11:43:03;;;;;;;12.23;1.80;;;21.80;99.90;;;;;;4811134;29;20085;-96
2022/06/28 11:45:31;;;;;;;7.38;1.10;;;21.60;99.90;;;;;;4809671;29;20042;-96
2022/06/28 11:48:05;;;;;;;11.00;1.50;;;21.50;99.90;;;;;;4811678;29;20057;-96
2022/06/28 11:50:53;;;;;;;8.40;1.40;;;21.40;99.90;;;;;;4811083;29;20523;-96
2022/06/28 11:53:20;;;;;;;6.97;1.55;;;21.40;99.90;;;;;;4825976;29;20057;-96
2022/06/28 11:55:55;;;;;;;9.65;1.30;;;21.30;99.90;;;;;;4812451;29;20117;-95
2022/06/28 11:58:31;;;;;;;8.45;1.60;;;21.30;99.90;;;;;;4828361;29;20050;-96
2022/06/28 12:01:12;;;;;;;9.65;2.17;;;21.40;99.90;;;;;;4828193;29;20045;-95
2022/06/28 12:03:42;;;;;;;9.32;1.30;;;21.50;99.90;;;;;;4828145;29;20646;-96
2022/06/28 12:06:09;;;;;;;8.07;1.30;;;21.70;99.90;;;;;;4827571;29;20056;-96
2022/06/28 12:08:49;;;;;;;6.55;1.33;;;21.80;99.90;;;;;;4811267;29;20633;-96
2022/06/28 12:11:25;;;;;;;12.90;1.17;;;21.70;99.90;;;;;;4810949;29;20049;-95
2022/06/28 12:14:02;;;;;;;10.43;1.40;;;21.80;99.90;;;;;;4813337;29;20061;-96
2022/06/28 12:16:35;;;;;;;10.48;1.38;;;21.70;99.90;;;;;;4812993;29;20038;-95
2022/06/28 12:19:03;;;;;;;7.55;1.75;;;21.80;99.90;;;;;;4810993;29;20136;-95
2022/06/28 12:21:29;;;;;;;9.07;2.03;;;22.00;99.90;;;;;;4810787;29;20053;-96
2022/06/28 12:23:59;;;;;;;8.45;1.67;;;22.20;99.90;;;;;;4811498;29;20049;-96
2022/06/28 12:26:39;;;;;;;11.32;2.08;;;22.30;99.90;;;;;;4813366;29;20114;-95
2022/06/28 12:29:06;;;;;;;7.95;1.60;;;22.10;99.90;;;;;;4812201;29;20045;-96
2022/06/28 12:31:31;;;;;;;11.07;1.58;;;22.00;99.90;;;;;;4814775;29;20082;-96
2022/06/28 12:33:57;;;;;;;9.85;1.85;;;22.00;99.90;;;;;;4810748;29;20078;-95
2022/06/28 12:36:23;;;;;;;9.80;1.30;;;22.00;99.90;;;;;;4811580;29;20049;-96
2022/06/28 12:38:49;;;;;;;8.13;1.05;;;22.10;99.90;;;;;;4811814;29;20050;-96
2022/06/28 12:41:14;;;;;;;9.77;1.60;;;22.10;99.90;;;;;;4813858;29;20053;-96
2022/06/28 12:43:42;;;;;;;8.93;1.45;;;22.30;99.90;;;;;;4811326;29;20050;-96
2022/06/28 12:46:08;;;;;;;8.23;1.20;;;22.30;99.90;;;;;;4811558;29;20049;-96
2022/06/28 12:48:34;;;;;;;7.65;1.25;;;22.30;99.90;;;;;;4813016;29;20105;-96
2022/06/28 12:51:00;;;;;;;8.23;1.38;;;22.20;99.90;;;;;;4813121;29;20491;-96
2022/06/28 12:53:29;;;;;;;4.40;1.02;;;22.20;99.90;;;;;;4815683;29;20046;-96
2022/06/28 12:55:55;;;;;;;6.43;1.00;;;22.40;99.90;;;;;;4816328;29;20053;-96
2022/06/28 12:58:20;;;;;;;8.85;1.13;;;22.70;99.90;;;;;;4816639;29;20065;-96
2022/06/28 13:00:49;;;;;;;6.78;1.20;;;22.90;99.90;;;;;;4818626;29;20467;-96
2022/06/28 13:03:15;;;;;;;11.07;1.10;;;22.90;99.90;;;;;;4818536;29;20487;-96
2022/06/28 13:05:42;;;;;;;8.45;1.30;;;22.70;99.90;;;;;;4819016;29;20053;-96
2022/06/28 13:08:09;;;;;;;8.40;0.73;;;22.60;99.90;;;;;;4820765;29;20058;-96
2022/06/28 13:10:35;;;;;;;9.82;1.20;;;22.70;99.90;;;;;;4819393;29;20487;-96
2022/06/28 13:13:03;;;;;;;6.95;1.20;;;22.80;99.90;;;;;;4819694;29;20038;-96
2022/06/28 13:15:30;;;;;;;6.57;1.10;;;22.80;99.90;;;;;;4821512;29;20139;-96
2022/06/28 13:17:57;;;;;;;4.50;0.93;;;22.80;99.90;;;;;;4823064;29;20069;-96
2022/06/28 13:20:26;;;;;;;5.25;0.85;;;22.50;99.90;;;;;;4822331;29;20576;-96
2022/06/28 13:22:59;;;;;;;5.43;0.90;;;22.80;99.90;;;;;;4826383;29;20056;-96
2022/06/28 13:25:30;;;;;;;6.05;1.50;;;23.00;99.90;;;;;;4858603;24;20506;-96
2022/06/28 13:27:59;;;;;;;8.63;1.40;;;23.30;99.90;;;;;;4816096;29;20050;-96
2022/06/28 13:30:31;;;;;;;5.47;1.00;;;23.30;99.90;;;;;;4844034;29;20045;-96
2022/06/28 13:33:21;;;;;;;4.93;0.73;;;23.20;99.90;;;;;;4849345;29;20046;-96
2022/06/28 13:35:50;;;;;;;5.82;0.93;;;22.90;99.90;;;;;;4827153;29;20058;-96
2022/06/28 13:38:30;;;;;;;8.73;1.13;;;22.60;99.90;;;;;;4857294;29;20087;-96
2022/06/28 13:41:17;;;;;;;8.88;1.17;;;22.80;99.90;;;;;;4844743;29;20054;-96
2022/06/28 13:46:53;;;;;;;;;;;;;;;;;;;;;
2022/06/28 13:50:50;;;;;;;;;;;;;;;;;;;;;
2022/06/28 13:57:55;;;;;;;;;;;;;;;;;;;;;
2022/06/28 14:05:20;;;;;;;;;;;;;;;;;;;;;
2022/06/28 14:13:07;;;;;;;4.72;0.88;;;22.20;99.90;;;;;;4733010;30;20139;-95
2022/06/28 14:19:42;;;;;;;7.45;0.90;;;22.80;99.90;;;;;;4755326;30;20138;-95
2022/06/28 14:26:13;;;;;;;7.78;0.90;;;23.10;99.80;;;;;;4716861;30;20114;-95
2022/06/28 14:53:14;;;;;;;;;;;;;;;;;;;;;
2022/06/28 15:02:39;;;;;;;8.05;1.02;;;23.00;99.90;;;;;;4860250;29;20053;-95
2022/06/28 15:05:05;;;;;;;3.70;0.70;;;23.00;99.90;;;;;;4828443;29;20462;-95
2022/06/28 15:32:01;;;;;;;6.60;0.80;;;24.40;99.90;;;;;;4847753;29;20057;-95
2022/06/28 15:35:04;;;;;;;6.60;0.90;;;24.80;97.50;;;;;;4777786;29;20064;-94
2022/06/28 15:38:24;;;;;;;;;;;25.00;98.20;;;;;;4799994;29;20141;-94
2022/06/28 15:41:50;;;;;;;;;;;;;;;;;;;;;
2022/06/28 15:55:41;;;;;;;5.95;0.93;;;25.40;90.60;;;;;;4842865;29;20136;-94
2022/06/28 15:59:07;;;;;;;3.80;0.60;;;25.40;90.10;;;;;;4828216;29;20133;-94
2022/06/28 16:02:40;;;;;;;;;;;;;;;;;;;;;
2022/06/28 16:06:04;;;;;;;;;;;;;;;;;;;;;
2022/06/28 16:19:27;;;;;;;3.40;0.75;;;24.80;86.40;;;;;;4769222;30;20469;-94
2022/06/28 16:22:50;;;;;;;5.07;0.90;;;24.40;90.00;;;;;;4750607;30;20112;-95
2022/06/28 16:26:11;;;;;;;6.80;0.75;;;24.00;93.90;;;;;;4685045;30;20520;-95
2022/06/28 16:28:39;;;;;;;7.40;0.90;;;23.50;99.90;;;;;;4749816;30;20151;-94
2022/06/28 16:39:32;;;;;;;;;;;;;;;;;;;;;
2022/06/28 16:43:44;;;;;;;6.03;0.82;;;24.80;99.90;;;;;;4734943;30;20060;-95
2022/06/28 16:50:55;;;;;;;4.43;0.77;;;26.90;91.50;;;;;;4689170;30;20131;-94
2022/06/28 17:00:16;;;;;;;8.57;1.08;;;29.00;65.80;;;;;;4664498;30;20086;-96
2022/06/28 17:02:44;;;;;;;5.90;1.08;;;29.10;66.50;;;;;;4754165;30;20169;-96
2022/06/28 17:09:18;;;;;;;5.72;1.08;;;29.80;67.40;;;;;;4731063;30;20056;-94
2022/06/28 17:12:25;;;;;;;9.38;1.27;;;30.10;62.00;;;;;;4722448;30;20048;-93
2022/06/28 17:15:55;;;;;;;3.90;0.95;;;30.30;60.80;;;;;;4743462;30;20078;-94
2022/06/28 17:30:02;;;;;;;4.20;1.10;;;31.10;58.60;;;;;;5015536;23;20062;-91
2022/06/28 17:32:28;;;;;;;9.88;0.98;;;31.20;58.20;;;;;;4830152;29;20045;-94
2022/06/28 17:34:55;;;;;;;9.02;1.20;;;31.20;59.10;;;;;;4828669;29;20417;-92
2022/06/28 17:37:21;;;;;;;10.85;1.33;;;31.20;59.20;;;;;;4825662;29;20045;-92
2022/06/28 17:39:47;;;;;;;8.00;1.33;;;31.10;57.90;;;;;;4829917;29;20272;-92
2022/06/28 17:42:13;;;;;;;10.88;1.45;;;31.00;55.90;;;;;;4829547;29;20117;-92
2022/06/28 17:44:40;;;;;;;9.45;1.40;;;30.70;56.00;;;;;;4830899;29;20049;-91
2022/06/28 17:47:06;;;;;;;9.20;1.00;;;30.50;54.80;;;;;;4829905;29;20106;-92
2022/06/28 17:49:33;;;;;;;9.68;1.27;;;30.40;55.80;;;;;;4830454;29;20056;-91
2022/06/28 17:52:05;;;;;;;5.80;1.00;;;30.00;56.10;;;;;;4831829;29;20045;-91
2022/06/28 17:54:31;;;;;;;11.30;1.60;;;29.40;57.20;;;;;;4829664;29;20406;-90
2022/06/28 17:56:57;;;;;;;6.65;1.25;;;28.50;59.00;;;;;;4830189;29;20375;-91
2022/06/28 17:59:23;;;;;;;8.30;1.33;;;27.80;58.70;;;;;;4826886;29;20045;-92
2022/06/28 18:01:49;;;;;;;7.47;1.13;;;27.20;59.10;;;;;;4823313;29;20532;-90
2022/06/28 18:04:17;;;;;;;7.47;1.20;;;26.60;59.40;;;;;;4820324;29;20124;-91
2022/06/28 18:06:44;;;;;;;7.28;1.50;;;26.20;60.60;;;;;;4824169;29;20102;-91
2022/06/28 18:09:10;;;;;;;10.48;1.38;;;25.90;61.70;;;;;;4818840;29;20058;-91
2022/06/28 18:11:36;;;;;;;6.40;1.25;;;25.40;61.00;;;;;;4835696;29;20128;-91
2022/06/28 18:14:01;;;;;;;8.65;1.30;;;25.00;62.10;;;;;;4828054;29;20136;-91
2022/06/28 18:16:29;;;;;;;4.32;1.08;;;24.70;62.80;;;;;;4828088;29;20058;-90
2022/06/28 18:18:55;;;;;;;9.45;1.52;;;24.40;63.10;;;;;;4824052;29;20045;-91
2022/06/28 18:21:22;;;;;;;8.20;1.17;;;24.10;63.30;;;;;;4818560;29;20183;-90
2022/06/28 18:23:48;;;;;;;10.90;1.80;;;23.80;64.10;;;;;;4821023;29;20064;-90
2022/06/28 18:26:14;;;;;;;12.70;1.65;;;23.50;64.50;;;;;;4828215;29;20088;-91
2022/06/28 18:28:39;;;;;;;7.43;1.40;;;23.30;65.40;;;;;;4827657;29;20053;-90
2022/06/28 18:31:05;;;;;;;6.28;1.08;;;23.10;66.50;;;;;;4819199;29;20144;-91
2022/06/28 18:33:31;;;;;;;7.45;1.45;;;22.90;67.60;;;;;;4816625;29;20046;-91
2022/06/28 18:35:57;;;;;;;7.95;1.35;;;22.80;69.30;;;;;;4825248;29;20152;-91
2022/06/28 18:38:23;;;;;;;9.68;1.98;;;22.70;72.50;;;;;;4809935;29;20058;-90
2022/06/28 18:40:50;;;;;;;6.85;1.15;;;22.50;78.50;;;;;;4825308;29;20491;-90
2022/06/28 18:43:15;;;;;;;9.80;1.52;;;22.40;85.70;;;;;;4825212;29;20579;-91
2022/06/28 18:45:41;;;;;;;9.98;1.65;;;22.30;91.80;;;;;;4810559;29;20046;-90
2022/06/28 18:48:08;;;;;;;7.15;1.45;;;22.20;92.90;;;;;;4826724;29;20522;-91
2022/06/28 18:50:34;;;;;;;9.38;1.58;;;22.20;94.50;;;;;;4810206;29;20083;-91
2022/06/28 18:53:01;;;;;;;9.82;1.55;;;22.00;96.30;;;;;;4810207;29;20046;-91
2022/06/28 18:55:27;;;;;;;7.47;1.42;;;21.90;97.40;;;;;;4819034;29;20049;-90
2022/06/28 18:57:53;;;;;;;6.53;1.13;;;21.80;98.90;;;;;;4827034;29;20050;-91
2022/06/28 19:00:21;;;;;;;8.95;1.40;;;21.70;99.90;;;;;;4830169;29;20124;-91
2022/06/28 19:02:48;;;;;;;8.32;1.17;;;21.70;99.90;;;;;;4828298;29;20049;-90
2022/06/28 19:05:13;;;;;;;8.48;1.30;;;21.60;99.90;;;;;;4827942;29;20045;-90
2022/06/28 19:07:39;;;;;;;9.57;1.33;;;21.50;99.90;;;;;;4827722;29;20053;-90
2022/06/28 19:10:06;;;;;;;7.10;1.27;;;21.40;99.90;;;;;;4832361;29;20124;-96
2022/06/28 19:12:33;;;;;;;9.63;1.52;;;21.30;99.90;;;;;;4828428;29;20061;-96
2022/06/28 19:14:59;;;;;;;10.23;1.40;;;21.10;99.90;;;;;;4838843;29;20041;-96
2022/06/28 19:17:25;;;;;;;6.32;1.20;;;21.00;99.90;;;;;;4829833;29;20154;-96
2022/06/28 19:19:51;;;;;;;10.02;1.50;;;21.00;99.90;;;;;;4828883;29;20037;-95
2022/06/28 19:22:17;;;;;;;9.48;1.23;;;20.90;99.90;;;;;;4831940;29;20084;-96
2022/06/28 19:24:43;;;;;;;12.38;1.38;;;20.70;99.90;;;;;;4835260;29;20113;-96
2022/06/28 19:27:11;;;;;;;3.83;0.90;;;20.60;99.90;;;;;;4831897;29;20045;-96
2022/06/28 19:29:38;;;;;;;7.18;1.50;;;20.50;99.90;;;;;;4827217;29;20141;-96
2022/06/28 19:32:04;;;;;;;13.77;1.65;;;20.40;99.90;;;;;;4826268;29;20053;-96
2022/06/28 19:34:30;;;;;;;13.02;1.33;;;20.30;99.90;;;;;;4828913;29;20068;-96
2022/06/28 19:36:55;;;;;;;9.18;1.50;;;20.20;99.90;;;;;;4827713;29;20049;-96
2022/06/28 19:39:21;;;;;;;8.82;1.50;;;20.10;99.90;;;;;;4827829;29;20052;-96
2022/06/28 19:41:49;;;;;;;6.85;1.35;;;20.00;99.90;;;;;;4829081;29;20060;-96
2022/06/28 19:44:15;;;;;;;14.27;1.58;;;19.90;99.90;;;;;;4834098;29;20136;-96
2022/06/28 19:46:42;;;;;;;6.35;1.17;;;19.80;99.90;;;;;;4828736;29;20147;-96
2022/06/28 19:49:09;;;;;;;10.48;1.75;;;19.70;99.90;;;;;;4831829;29;20065;-96
2022/06/28 19:51:35;;;;;;;8.18;1.55;;;19.60;99.90;;;;;;4828021;29;20114;-95
2022/06/28 19:54:01;;;;;;;6.00;1.23;;;19.50;99.90;;;;;;4828340;29;20575;-96
2022/06/28 19:56:27;;;;;;;7.22;1.42;;;19.30;99.90;;;;;;4831053;29;20042;-96
2022/06/28 19:58:52;;;;;;;9.50;1.40;;;19.20;99.90;;;;;;4828806;29;20509;-96
2022/06/28 20:01:18;;;;;;;9.73;1.42;;;19.10;99.90;;;;;;4831301;29;20053;-96
2022/06/28 20:03:44;;;;;;;9.23;1.55;;;19.00;99.90;;;;;;4828412;29;20587;-96
2022/06/28 20:06:10;;;;;;;9.18;1.30;;;18.90;99.90;;;;;;4829556;29;20046;-95
2022/06/28 20:08:38;;;;;;;9.65;1.23;;;18.90;99.90;;;;;;4843557;29;20077;-96
2022/06/28 20:11:04;;;;;;;9.82;1.30;;;18.80;99.90;;;;;;4839883;29;20049;-96
2022/06/28 20:13:30;;;;;;;11.50;1.38;;;18.70;99.90;;;;;;4831746;29;20517;-96
2022/06/28 20:15:55;;;;;;;6.85;1.35;;;18.50;99.90;;;;;;4831351;29;20109;-95
2022/06/28 20:18:21;;;;;;;8.48;1.33;;;18.50;99.90;;;;;;4831258;29;20057;-95
2022/06/28 20:20:48;;;;;;;7.47;1.30;;;18.40;99.90;;;;;;4831252;29;20535;-96
2022/06/28 20:23:13;;;;;;;10.23;1.33;;;18.30;99.90;;;;;;4834409;29;20172;-96
2022/06/28 20:25:39;;;;;;;9.10;1.38;;;18.30;99.90;;;;;;4831279;29;20137;-96
2022/06/28 20:28:06;;;;;;;8.13;1.70;;;18.30;99.90;;;;;;4830818;29;20053;-96
2022/06/28 20:30:33;;;;;;;8.38;1.50;;;18.20;99.90;;;;;;4834463;29;20041;-96
2022/06/28 20:33:00;;;;;;;11.95;1.60;;;18.10;99.90;;;;;;4835688;29;20060;-96
2022/06/28 20:35:26;;;;;;;5.65;1.38;;;18.00;99.90;;;;;;4840169;29;20053;-95
2022/06/28 20:37:52;;;;;;;12.23;1.77;;;18.00;99.90;;;;;;4832420;29;20098;-96
2022/06/28 20:40:18;;;;;;;8.55;1.42;;;17.90;99.90;;;;;;4830564;29;20087;-95
2022/06/28 20:42:44;;;;;;;6.18;1.60;;;17.80;99.90;;;;;;4832114;29;20053;-96
2022/06/28 20:45:13;;;;;;;7.22;1.70;;;17.70;99.90;;;;;;4832451;29;20050;-95
2022/06/28 20:47:40;;;;;;;8.65;1.85;;;17.70;99.90;;;;;;4831330;29;20041;-96
2022/06/28 20:50:07;;;;;;;7.70;2.03;;;17.60;99.90;;;;;;4833884;29;20118;-92
2022/06/28 20:52:33;;;;;;;8.27;1.98;;;17.60;99.90;;;;;;4831176;29;20056;-96
2022/06/28 20:54:59;;;;;;;10.32;1.92;;;17.50;99.90;;;;;;4830570;29;20498;-94
2022/06/28 20:57:25;;;;;;;6.15;1.60;;;17.60;99.90;;;;;;4830185;29;20057;-95
2022/06/28 20:59:51;;;;;;;16.05;5.70;;;17.50;99.90;;;;;;4830170;29;20133;-94
2022/06/28 21:02:16;;;;;;;8.90;2.67;;;17.50;99.90;;;;;;4830457;29;20045;-94
2022/06/28 21:04:42;;;;;;;6.00;2.53;;;17.50;99.90;;;;;;4830440;29;20048;-95
2022/06/28 21:07:09;;;;;;;8.32;1.75;;;17.40;99.90;;;;;;4829944;29;20060;-96
2022/06/28 21:09:35;;;;;;;7.53;2.40;;;17.40;99.90;;;;;;4830555;29;20041;-95
2022/06/28 21:12:03;;;;;;;8.25;2.05;;;17.40;99.90;;;;;;4830228;29;20064;-94
2022/06/28 21:14:29;;;;;;;5.82;1.65;;;17.30;99.90;;;;;;4830424;29;20057;-96
2022/06/28 21:16:56;;;;;;;12.77;2.80;;;17.20;99.90;;;;;;4830061;29;20057;-96
2022/06/28 21:19:22;;;;;;;9.50;1.95;;;17.20;99.90;;;;;;4831656;29;20049;-91
2022/06/28 21:21:48;;;;;;;12.75;2.33;;;17.10;99.90;;;;;;4832595;29;20093;-91
2022/06/28 21:24:14;;;;;;;7.00;2.22;;;17.10;99.90;;;;;;4832504;29;20046;-96
2022/06/28 21:26:40;;;;;;;6.72;1.92;;;17.00;99.90;;;;;;4832155;29;20060;-95
2022/06/28 21:29:09;;;;;;;7.72;2.33;;;17.00;99.90;;;;;;4831683;29;20121;-92
2022/06/28 21:31:35;;;;;;;9.27;2.38;;;16.90;99.90;;;;;;4831344;29;20549;-96
2022/06/28 21:34:01;;;;;;;8.50;2.53;;;16.90;99.90;;;;;;4831538;29;20037;-95
2022/06/28 21:36:27;;;;;;;9.30;2.78;;;16.90;99.90;;;;;;4831234;29;20266;-94
2022/06/28 21:38:53;;;;;;;12.05;2.20;;;16.90;99.90;;;;;;4831754;29;20049;-95
2022/06/28 21:41:19;;;;;;;8.98;2.60;;;16.80;99.90;;;;;;4831510;29;20055;-94
2022/06/28 21:43:45;;;;;;;8.43;2.17;;;16.80;99.90;;;;;;4831749;29;20050;-94
2022/06/28 21:46:11;;;;;;;6.97;1.95;;;16.80;99.90;;;;;;4831217;29;20049;-95
2022/06/28 21:48:38;;;;;;;10.70;2.50;;;16.70;99.90;;;;;;4831713;29;20072;-94